Flight Track Log - Related Links

Times and Time Zones

All times are in EDT time to prevent confusion due to time zone crossing. See the N779NC flight status page for this flight to view local times or setup timezone preferences in your user account.

Time Position Orientation Groundspeed Altitude Reporting Facility
EDT Latitude Longitude Course Direction KTS MPH feet Rate Location/Type
Fri 05:49:58 PM 41.9833 -87.8500 14° North 197 227 2,700  Level Chicago TRACON
Fri 05:50:39 PM 41.9808 -87.7967 94° East 230 265 3,900 1,922 Climbing Chicago Center
Fri 05:51:41 PM 42.0456 -87.8086 352° North 269 310 6,000 2,613 Climbing Chicago Center
Fri 05:52:00 PM 42.3730 -87.7719 20° North  Level FlightAware Approximate
Fri 05:52:43 PM 42.1172 -87.8356 344° North 296 341 9,300  Level Chicago Center
Fri 05:53:00 PM 42.4743 -87.7385 North  Level FlightAware Approximate
Fri 05:53:44 PM 42.1853 -87.7700 36° Northeast 302 348 12,200  Level Chicago Center
Fri 05:54:00 PM 42.5771 -87.7133 14° North  Level FlightAware Approximate
Fri 05:54:46 PM 42.2942 -87.7736 359° North 324 373 15,300  Level Chicago Center
Fri 05:55:00 PM 42.6566 -87.6868 14° North  Level FlightAware Approximate
Fri 05:55:48 PM 42.3836 -87.7789 358° North 332 382 17,700  Level Chicago Center
Fri 05:56:50 PM 42.4808 -87.7456 14° North 355 409 19,900 1,463 Climbing Chicago Center
Fri 05:57:51 PM 42.5822 -87.6939 21° North 385 443 20,700 732 Climbing Chicago Center
Fri 05:58:53 PM 42.6683 -87.5817 44° Northeast 441 507 21,400 1,065 Climbing Chicago Center
Fri 05:59:55 PM 42.7347 -87.3881 65° Northeast 480 552 22,900 774 Climbing Chicago Center
Fri 06:00:57 PM 42.7886 -87.2450 63° Northeast 492 566 23,000 48 Climbing Chicago Center
Fri 06:01:59 PM 42.8453 -87.0325 70° East 498 573 23,000  Level Chicago Center
Fri 06:03:01 PM 42.8914 -86.8583 70° East 492 566 23,000  Level Chicago Center
Fri 06:04:02 PM 42.9422 -86.6850 68° East 492 566 23,000  Level Chicago Center
Fri 06:05:04 PM 42.9908 -86.5100 69° East 493 567 23,000  Level Chicago Center
Fri 06:06:07 PM 43.0272 -86.3267 75° East 501 577 23,000  Level Chicago Center
Fri 06:07:08 PM 43.0619 -86.1453 75° East 494 568 23,000  Level Chicago Center
Fri 06:08:10 PM 43.1003 -85.9528 75° East 495 570 23,000  Level Chicago Center
Fri 06:09:11 PM 43.1350 -85.7650 76° East 500 575 23,000  Level Chicago Center
Fri 06:10:13 PM 43.1700 -85.5842 75° East 492 566 23,000  Level Chicago Center
Fri 06:11:15 PM 43.2061 -85.4019 75° East 495 570 23,000  Level Chicago Center
Fri 06:12:17 PM 43.2344 -85.1850 80° East 478 550 23,000  Level Chicago Center
Fri 06:13:18 PM 43.2178 -85.0128 98° East 459 528 23,000  Level Chicago Center
Fri 06:14:20 PM 43.1900 -84.8453 103° East 453 521 23,000  Level Chicago Center
Fri 06:15:22 PM 43.1556 -84.6775 106° East 457 526 23,000 -484 Level Chicago Center
Fri 06:16:24 PM 43.1242 -84.5111 104° East 453 521 22,000 -1,805 Descending Chicago Center
Fri 06:17:25 PM 43.0889 -84.3539 107° East 436 502 19,300 -2,683 Descending Chicago Center
Fri 06:18:27 PM 43.0517 -84.2064 109° East 411 473 16,500 -3,000 Descending Chicago Center
Fri 06:19:31 PM 42.9956 -84.0606 118° Southeast 393 452 13,000 -2,129 Descending Cleveland Center
Fri 06:20:31 PM 42.9406 -83.9469 123° Southeast 376 433 12,100 -535 Descending Cleveland Center
Fri 06:21:12 PM 42.8969 -83.8708 128° Southeast 318 366 12,100  Level Cleveland Center
Fri 06:22:19 PM 42.8353 -83.7658 129° Southeast 305 351 12,100 -698 Level Cleveland Center
Fri 06:23:21 PM 42.7792 -83.6808 132° Southeast 300 345 10,600 -1,545 Descending Cleveland Center
Fri 06:24:31 PM 42.6922 -83.6567 168° South 261 300 8,700 -1,377 Descending Cleveland Center
Fri 06:25:23 PM 42.6564 -83.5900 126° Southeast 272 313 7,800 -1,333 Descending Cleveland Center
Fri 06:26:19 PM 42.6272 -83.5067 115° Southeast 255 293 6,300 -872 Descending Cleveland Center
Fri 06:27:20 PM 42.6025 -83.4211 111° Southeast 240 276 6,100 -148 Descending Cleveland Center
Fri 06:28:21 PM 42.6089 -83.3225 85° East 243 280 6,000  Descending Cleveland Center
Fri 06:29:22 PM 42.6131 -83.2353 86° East 238 274 6,100 -541 Climbing Cleveland Center
Fri 06:30:23 PM 42.5856 -83.1636 118° Southeast 211 243 4,900 -976 Descending Cleveland Center
Fri 06:31:25 PM 42.5272 -83.1583 176° South 200 230 4,100 -390 Descending Cleveland Center
Fri 06:32:26 PM 42.4747 -83.1817 198° South 196 226 4,100  Level Cleveland Center
Fri 06:33:27 PM 42.4278 -83.2189 210° Southwest 192 221 4,100  Level Cleveland Center
Fri 06:34:22 PM 42.3833 -83.2536 210° Southwest 195 224 4,100  Level Cleveland Center

Login

Don't have an account? Register now (free) for customized features, flight alerts, and more!